Home  |  Fixtures  |  Results  |  Rankings  |  Athletes  |  Clubs  |  Newsletters
RWR  |  200 Club  |  About us  |  Information  |  Gallery  |  Contacts  |  Login  |  Facebook - UK Race Walking Group
    
Results

  Date:    29 April 2009      View all races for this date    Re-order by age grade
  Race:    VAC / Surrey / Middx / Herts 10,000m Championships  
  Distance:    10km
  Location:    Battersea Park, London
  Printed in Race Walking Record 801


 Gender   Position   Athlete   Age Group   Grade   Club   Time   Speed   Points 

  F   1     Sandra Brown   W60   90.96%     Sy WC     00:56:56.8     10.539 km/h   870 
  F   2     Helen Middleton   W45   75.31%     E&H     00:59:21.5     10.110 km/h   817 
  F   3     Fiona Bishop   W45   71.15%     AFD     01:04:34.7     9.293 km/h   710 

  M   1     Ian Richards   M60   89.00%     Steyn     00:52:16.2     11.480 km/h   603 
  M   2     John Hall   M60   85.56%     Belg     00:53:50.8     11.146 km/h   550 
  M   3     Liam Baldwin   U20M   71.49%     Ton     00:54:38.3     10.982 km/h   524 
  M   4     Steve Uttley   M50   77.27%     Ilf     00:55:01.8     10.906 km/h   511 
  M   5     Arthur Thomson   M70   95.45%     Phoe     00:56:04.7     10.702 km/h   478 
  M   6     Steve Allen   M50   76.08%     Barn     00:56:21.5     10.648 km/h   470 
  M   7     Andy Cox   M55   78.72%     Hill     00:56:22.2     10.645 km/h   469 
  M   8     Carl Lawton   M60   81.63%     Belg     00:56:59.4     10.529 km/h   450 
  M   9     Mark Culshaw   M40   67.43%     Belg     00:59:05.4     10.155 km/h   389 
  M   10     Ron Penfold   M65   83.75%     Steyn     00:59:16.9     10.124 km/h   384 
  M   11     Laurence Dordoy   M50   72.18%     Ilf     00:59:54.1     10.017 km/h   367 
  M   12     Ian Statter   M50   69.73%     Sy WC     01:00:58.2     9.841 km/h   338 
  M   13     Sean Pender   M55   71.58%     E&H     01:01:27.0     9.764 km/h   326 
  M   14     Mick Harran   M70   82.38%     Herne H     01:02:28.1     9.605 km/h   301 
  M   15     Mike Hinton   M65   79.78%     Ilf     01:02:57.3     9.531 km/h   289 
  M   16     Shaun Lightman   M65   76.55%     Sy WC     01:04:06.7     9.360 km/h   262 
  M   17     Chris Flint   M60   74.74%     Lon V     01:04:13.3     9.343 km/h   259 
  M   18     Peter Crane   M60   74.64%     Sy WC     01:04:18.2     9.331 km/h   257 
  M   19     Ron Powell   M70   80.36%     E&H     01:05:42.2     9.132 km/h   227 
  M   20     Gary MacDonald   M50   61.79%     Sy WC     01:08:48.1     8.721 km/h   165 
  M   21     Bernie Hercock   M70   72.71%     E&H     01:12:37.2     8.263 km/h   103 
  M   22     David Hoben   M55   60.17%     Sy WC     01:13:45.3     8.136 km/h   87 
  M   23     John May   M75   74.79%     Lon V     01:16:54.1     7.802 km/h   51 


(c)    RACE WALKING ASSOCIATION 1907 - 2016    Sitemap